sensor_id;sensor_type;location;lat;lon;timestamp;pressure;altitude;pressure_sealevel;temperature;humidity
68988;BME280;56038;46.080;11.116;2023-03-13T00:04:50;99524.84;;;9.16;53.15
68988;BME280;56038;46.080;11.116;2023-03-13T00:09:52;99539.75;;;9.11;53.48
68988;BME280;56038;46.080;11.116;2023-03-13T00:14:55;99532.78;;;9.11;53.19
68988;BME280;56038;46.080;11.116;2023-03-13T00:19:57;99544.13;;;9.10;53.57
68988;BME280;56038;46.080;11.116;2023-03-13T00:24:58;99541.94;;;8.96;53.60
68988;BME280;56038;46.080;11.116;2023-03-13T00:30:02;99541.94;;;8.96;54.68
68988;BME280;56038;46.080;11.116;2023-03-13T00:35:04;99556.91;;;8.90;54.50
68988;BME280;56038;46.080;11.116;2023-03-13T00:40:07;99551.00;;;8.85;54.96
68988;BME280;56038;46.080;11.116;2023-03-13T00:45:11;99539.91;;;8.78;55.28
68988;BME280;56038;46.080;11.116;2023-03-13T00:50:12;99533.78;;;8.79;54.87
68988;BME280;56038;46.080;11.116;2023-03-13T00:55:14;99542.34;;;8.83;55.08
68988;BME280;56038;46.080;11.116;2023-03-13T01:00:18;99539.03;;;8.78;55.62
68988;BME280;56038;46.080;11.116;2023-03-13T01:05:23;99533.78;;;8.79;55.40
68988;BME280;56038;46.080;11.116;2023-03-13T01:10:28;99523.41;;;8.78;55.46
68988;BME280;56038;46.080;11.116;2023-03-13T01:15:33;99512.59;;;8.62;56.76
68988;BME280;56038;46.080;11.116;2023-03-13T01:20:35;99500.69;;;8.55;56.13
68988;BME280;56038;46.080;11.116;2023-03-13T01:25:36;99501.25;;;8.64;55.95
68988;BME280;56038;46.080;11.116;2023-03-13T01:30:40;99484.97;;;8.58;56.30
68988;BME280;56038;46.080;11.116;2023-03-13T01:35:42;99488.41;;;8.58;56.19
68988;BME280;56038;46.080;11.116;2023-03-13T01:40:46;99491.06;;;8.57;56.35
68988;BME280;56038;46.080;11.116;2023-03-13T01:45:53;99481.63;;;8.54;56.65
68988;BME280;56038;46.080;11.116;2023-03-13T01:50:59;99488.53;;;8.55;56.22
68988;BME280;56038;46.080;11.116;2023-03-13T01:56:04;99477.16;;;8.58;56.27
68988;BME280;56038;46.080;11.116;2023-03-13T02:01:09;99481.38;;;8.62;56.41
68988;BME280;56038;46.080;11.116;2023-03-13T02:06:11;99475.44;;;8.57;56.77
68988;BME280;56038;46.080;11.116;2023-03-13T02:11:20;99482.69;;;8.47;57.19
68988;BME280;56038;46.080;11.116;2023-03-13T02:16:26;99488.97;;;8.40;57.50
68988;BME280;56038;46.080;11.116;2023-03-13T02:21:37;99484.53;;;8.44;57.80
68988;BME280;56038;46.080;11.116;2023-03-13T02:26:43;99483.44;;;8.51;56.91
68988;BME280;56038;46.080;11.116;2023-03-13T02:31:45;99489.50;;;8.51;57.07
68988;BME280;56038;46.080;11.116;2023-03-13T02:36:48;99482.72;;;8.46;57.71
68988;BME280;56038;46.080;11.116;2023-03-13T02:41:52;99482.13;;;8.37;57.99
68988;BME280;56038;46.080;11.116;2023-03-13T02:46:54;99486.41;;;8.38;57.92
68988;BME280;56038;46.080;11.116;2023-03-13T02:51:58;99498.63;;;8.36;58.31
68988;BME280;56038;46.080;11.116;2023-03-13T02:57:03;99501.94;;;8.42;57.73
68988;BME280;56038;46.080;11.116;2023-03-13T03:02:05;99495.75;;;8.46;57.96
68988;BME280;56038;46.080;11.116;2023-03-13T03:07:06;99488.22;;;8.36;58.55
68988;BME280;56038;46.080;11.116;2023-03-13T03:12:10;99490.81;;;8.36;58.24
68988;BME280;56038;46.080;11.116;2023-03-13T03:17:12;99498.03;;;8.25;58.74
68988;BME280;56038;46.080;11.116;2023-03-13T03:22:13;99497.19;;;8.25;58.82
68988;BME280;56038;46.080;11.116;2023-03-13T03:27:16;99500.50;;;8.30;58.63
68988;BME280;56038;46.080;11.116;2023-03-13T03:32:18;99498.91;;;8.26;59.01
68988;BME280;56038;46.080;11.116;2023-03-13T03:37:20;99508.41;;;8.27;58.77
68988;BME280;56038;46.080;11.116;2023-03-13T03:42:23;99495.41;;;8.27;59.29
68988;BME280;56038;46.080;11.116;2023-03-13T03:47:25;99494.44;;;8.29;58.75
68988;BME280;56038;46.080;11.116;2023-03-13T03:52:27;99490.03;;;8.31;58.69
68988;BME280;56038;46.080;11.116;2023-03-13T03:57:30;99478.84;;;8.29;59.05
68988;BME280;56038;46.080;11.116;2023-03-13T04:02:32;99490.72;;;8.39;58.37
68988;BME280;56038;46.080;11.116;2023-03-13T04:07:33;99495.84;;;8.43;58.28
68988;BME280;56038;46.080;11.116;2023-03-13T04:12:36;99496.03;;;8.35;58.67
68988;BME280;56038;46.080;11.116;2023-03-13T04:17:38;99495.44;;;8.25;59.04
68988;BME280;56038;46.080;11.116;2023-03-13T04:22:40;99514.72;;;8.18;59.29
68988;BME280;56038;46.080;11.116;2023-03-13T04:27:44;99520.91;;;8.14;59.53
68988;BME280;56038;46.080;11.116;2023-03-13T04:32:46;99529.38;;;8.22;59.00
68988;BME280;56038;46.080;11.116;2023-03-13T04:37:47;99532.88;;;8.21;59.07
68988;BME280;56038;46.080;11.116;2023-03-13T04:42:50;99528.00;;;8.09;59.06
68988;BME280;56038;46.080;11.116;2023-03-13T04:47:52;99531.63;;;8.02;59.33
68988;BME280;56038;46.080;11.116;2023-03-13T04:52:54;99526.66;;;7.94;60.00
68988;BME280;56038;46.080;11.116;2023-03-13T04:57:57;99531.78;;;7.97;60.14
68988;BME280;56038;46.080;11.116;2023-03-13T05:02:59;99534.38;;;7.97;60.36
68988;BME280;56038;46.080;11.116;2023-03-13T05:08:01;99536.84;;;8.02;59.96
68988;BME280;56038;46.080;11.116;2023-03-13T05:13:04;99544.53;;;8.06;59.62
68988;BME280;56038;46.080;11.116;2023-03-13T05:18:05;99549.88;;;8.00;60.72
68988;BME280;56038;46.080;11.116;2023-03-13T05:23:07;99549.00;;;8.01;60.01
68988;BME280;56038;46.080;11.116;2023-03-13T05:28:10;99552.09;;;8.16;59.21
68988;BME280;56038;46.080;11.116;2023-03-13T05:33:12;99540.53;;;8.26;58.87
68988;BME280;56038;46.080;11.116;2023-03-13T05:38:14;99539.69;;;8.25;58.98
68988;BME280;56038;46.080;11.116;2023-03-13T05:43:17;99539.59;;;8.28;58.99
68988;BME280;56038;46.080;11.116;2023-03-13T05:48:19;99537.66;;;8.36;59.29
68988;BME280;56038;46.080;11.116;2023-03-13T05:53:20;99547.19;;;8.36;58.98
68988;BME280;56038;46.080;11.116;2023-03-13T05:58:24;99537.69;;;8.35;58.61
68988;BME280;56038;46.080;11.116;2023-03-13T06:03:26;99549.00;;;8.34;59.28
68988;BME280;56038;46.080;11.116;2023-03-13T06:08:28;99538.53;;;8.35;59.21
68988;BME280;56038;46.080;11.116;2023-03-13T06:13:31;99544.41;;;8.44;58.98
68988;BME280;56038;46.080;11.116;2023-03-13T06:18:32;99552.88;;;8.50;58.51
68988;BME280;56038;46.080;11.116;2023-03-13T06:23:34;99550.16;;;8.55;58.71
68988;BME280;56038;46.080;11.116;2023-03-13T06:28:37;99549.34;;;8.53;59.50
68988;BME280;56038;46.080;11.116;2023-03-13T06:33:39;99559.16;;;8.43;59.86
68988;BME280;56038;46.080;11.116;2023-03-13T06:38:41;99566.81;;;8.48;59.68
68988;BME280;56038;46.080;11.116;2023-03-13T06:43:44;99558.78;;;8.57;59.07
68988;BME280;56038;46.080;11.116;2023-03-13T06:48:46;99562.72;;;8.70;59.00
68988;BME280;56038;46.080;11.116;2023-03-13T06:53:48;99560.72;;;8.78;58.67
68988;BME280;56038;46.080;11.116;2023-03-13T06:58:53;99550.81;;;8.91;57.96
68988;BME280;56038;46.080;11.116;2023-03-13T07:03:54;99554.06;;;8.97;57.70
68988;BME280;56038;46.080;11.116;2023-03-13T07:08:56;99552.28;;;8.99;58.30
68988;BME280;56038;46.080;11.116;2023-03-13T07:13:59;99541.34;;;9.16;57.16
68988;BME280;56038;46.080;11.116;2023-03-13T07:19:02;99543.69;;;9.24;57.04
68988;BME280;56038;46.080;11.116;2023-03-13T07:24:04;99537.59;;;9.51;57.99
68988;BME280;56038;46.080;11.116;2023-03-13T07:29:08;99529.69;;;9.79;56.00
68988;BME280;56038;46.080;11.116;2023-03-13T07:34:10;99535.41;;;9.89;55.71
68988;BME280;56038;46.080;11.116;2023-03-13T07:39:12;99543.06;;;10.18;55.86
68988;BME280;56038;46.080;11.116;2023-03-13T07:44:16;99547.09;;;10.29;54.65
68988;BME280;56038;46.080;11.116;2023-03-13T07:49:17;99558.00;;;10.63;54.88
68988;BME280;56038;46.080;11.116;2023-03-13T07:54:19;99554.75;;;10.80;53.44
68988;BME280;56038;46.080;11.116;2023-03-13T07:59:22;99543.47;;;11.01;53.25
68988;BME280;56038;46.080;11.116;2023-03-13T08:04:24;99543.38;;;11.26;51.89
68988;BME280;56038;46.080;11.116;2023-03-13T08:09:26;99546.16;;;11.44;51.57
68988;BME280;56038;46.080;11.116;2023-03-13T08:14:29;99538.88;;;11.50;51.77
68988;BME280;56038;46.080;11.116;2023-03-13T08:19:31;99523.81;;;11.57;51.35
68988;BME280;56038;46.080;11.116;2023-03-13T08:24:32;99530.94;;;11.53;51.36
68988;BME280;56038;46.080;11.116;2023-03-13T08:29:36;99528.13;;;11.58;51.59
68988;BME280;56038;46.080;11.116;2023-03-13T08:34:37;99528.03;;;12.02;50.82
68988;BME280;56038;46.080;11.116;2023-03-13T08:39:39;99525.00;;;12.31;50.06
68988;BME280;56038;46.080;11.116;2023-03-13T08:44:43;99517.69;;;12.38;49.47
68988;BME280;56038;46.080;11.116;2023-03-13T08:49:44;99520.47;;;12.53;48.99
68988;BME280;56038;46.080;11.116;2023-03-13T08:54:47;99521.88;;;12.60;48.67
68988;BME280;56038;46.080;11.116;2023-03-13T08:59:50;99516.28;;;12.49;48.58
68988;BME280;56038;46.080;11.116;2023-03-13T09:04:52;99517.91;;;12.52;48.57
68988;BME280;56038;46.080;11.116;2023-03-13T09:09:54;99522.16;;;12.73;48.30
68988;BME280;56038;46.080;11.116;2023-03-13T09:14:58;99517.19;;;12.86;47.79
68988;BME280;56038;46.080;11.116;2023-03-13T09:19:59;99523.00;;;12.93;47.63
68988;BME280;56038;46.080;11.116;2023-03-13T09:25:01;99511.91;;;13.24;46.78
68988;BME280;56038;46.080;11.116;2023-03-13T09:30:06;99478.91;;;13.37;46.29
68988;BME280;56038;46.080;11.116;2023-03-13T09:35:08;99481.19;;;14.28;46.30
68988;BME280;56038;46.080;11.116;2023-03-13T09:40:13;99497.97;;;14.90;43.92
68988;BME280;56038;46.080;11.116;2023-03-13T09:45:20;99489.13;;;15.22;43.40
68988;BME280;56038;46.080;11.116;2023-03-13T09:50:26;99474.72;;;14.98;43.25
68988;BME280;56038;46.080;11.116;2023-03-13T09:55:32;99477.72;;;14.76;44.51
68988;BME280;56038;46.080;11.116;2023-03-13T10:00:37;99464.47;;;14.62;43.81
68988;BME280;56038;46.080;11.116;2023-03-13T10:05:45;99460.09;;;14.29;44.19
68988;BME280;56038;46.080;11.116;2023-03-13T10:10:51;99460.34;;;14.25;44.73
68988;BME280;56038;46.080;11.116;2023-03-13T10:15:57;99443.53;;;13.78;45.34
68988;BME280;56038;46.080;11.116;2023-03-13T10:21:11;99432.41;;;13.91;45.84
68988;BME280;56038;46.080;11.116;2023-03-13T10:26:15;99431.94;;;14.16;46.13
68988;BME280;56038;46.080;11.116;2023-03-13T10:31:26;99424.78;;;14.02;45.03
68988;BME280;56038;46.080;11.116;2023-03-13T10:36:39;99439.03;;;13.98;45.73
68988;BME280;56038;46.080;11.116;2023-03-13T10:41:41;99447.00;;;14.45;46.25
68988;BME280;56038;46.080;11.116;2023-03-13T10:46:45;99439.69;;;14.66;45.84
68988;BME280;56038;46.080;11.116;2023-03-13T10:51:49;99422.59;;;14.59;45.37
68988;BME280;56038;46.080;11.116;2023-03-13T10:57:06;99408.34;;;14.63;45.53
68988;BME280;56038;46.080;11.116;2023-03-13T11:02:22;99410.13;;;13.98;45.15
68988;BME280;56038;46.080;11.116;2023-03-13T11:07:28;99406.97;;;14.24;45.29
68988;BME280;56038;46.080;11.116;2023-03-13T11:12:33;99399.31;;;14.83;44.35
68988;BME280;56038;46.080;11.116;2023-03-13T11:17:38;99386.13;;;15.28;43.05
68988;BME280;56038;46.080;11.116;2023-03-13T11:22:48;99387.50;;;15.50;42.77
68988;BME280;56038;46.080;11.116;2023-03-13T11:28:05;99374.53;;;15.75;40.32
68988;BME280;56038;46.080;11.116;2023-03-13T11:33:23;99365.69;;;15.48;40.73
68988;BME280;56038;46.080;11.116;2023-03-13T11:38:32;99370.03;;;15.92;41.25
68988;BME280;56038;46.080;11.116;2023-03-13T11:43:44;99344.56;;;16.74;39.82
68988;BME280;56038;46.080;11.116;2023-03-13T11:54:33;99307.69;;;17.25;38.98
68988;BME280;56038;46.080;11.116;2023-03-13T11:59:44;99318.84;;;17.03;39.27
68988;BME280;56038;46.080;11.116;2023-03-13T12:04:55;99308.13;;;17.70;37.72
68988;BME280;56038;46.080;11.116;2023-03-13T12:10:00;99297.03;;;18.62;38.21
68988;BME280;56038;46.080;11.116;2023-03-13T12:15:05;99285.00;;;18.34;36.46
68988;BME280;56038;46.080;11.116;2023-03-13T12:20:21;99278.38;;;19.90;34.26
68988;BME280;56038;46.080;11.116;2023-03-13T12:25:27;99264.28;;;19.56;35.57
68988;BME280;56038;46.080;11.116;2023-03-13T12:30:35;99255.22;;;18.19;36.43
68988;BME280;56038;46.080;11.116;2023-03-13T12:35:46;99241.31;;;18.29;37.08
68988;BME280;56038;46.080;11.116;2023-03-13T12:40:57;99241.75;;;18.70;36.32
68988;BME280;56038;46.080;11.116;2023-03-13T12:46:17;99225.38;;;18.41;35.22
68988;BME280;56038;46.080;11.116;2023-03-13T12:51:33;99206.81;;;19.67;34.40
68988;BME280;56038;46.080;11.116;2023-03-13T13:02:14;99186.91;;;20.48;33.67
68988;BME280;56038;46.080;11.116;2023-03-13T13:07:23;99177.38;;;21.39;31.67
68988;BME280;56038;46.080;11.116;2023-03-13T13:12:26;99176.78;;;21.05;33.17
68988;BME280;56038;46.080;11.116;2023-03-13T13:28:36;99148.16;;;17.90;36.27
68988;BME280;56038;46.080;11.116;2023-03-13T13:33:39;99146.28;;;17.43;36.64
68988;BME280;56038;46.080;11.116;2023-03-13T13:38:42;99156.97;;;17.65;36.34
68988;BME280;56038;46.080;11.116;2023-03-13T13:43:46;99135.44;;;17.71;36.52
68988;BME280;56038;46.080;11.116;2023-03-13T13:49:06;99108.84;;;17.25;36.87
68988;BME280;56038;46.080;11.116;2023-03-13T13:54:32;99121.47;;;16.83;37.71
68988;BME280;56038;46.080;11.116;2023-03-13T13:59:39;99108.50;;;16.42;38.22
68988;BME280;56038;46.080;11.116;2023-03-13T14:04:46;99110.78;;;16.21;39.01
68988;BME280;56038;46.080;11.116;2023-03-13T14:09:58;99104.97;;;15.76;39.67
68988;BME280;56038;46.080;11.116;2023-03-13T14:15:15;99104.19;;;15.62;40.09
68988;BME280;56038;46.080;11.116;2023-03-13T14:20:30;99107.13;;;15.43;40.06
68988;BME280;56038;46.080;11.116;2023-03-13T14:25:45;99100.22;;;15.69;40.19
68988;BME280;56038;46.080;11.116;2023-03-13T14:30:49;99093.28;;;15.53;40.34
68988;BME280;56038;46.080;11.116;2023-03-13T14:35:51;99085.38;;;15.68;39.94
68988;BME280;56038;46.080;11.116;2023-03-13T14:40:55;99078.69;;;15.89;39.63
68988;BME280;56038;46.080;11.116;2023-03-13T14:45:58;99083.63;;;15.94;39.61
68988;BME280;56038;46.080;11.116;2023-03-13T14:51:02;99083.38;;;16.11;39.47
68988;BME280;56038;46.080;11.116;2023-03-13T14:56:12;99078.81;;;16.00;39.36
68988;BME280;56038;46.080;11.116;2023-03-13T15:01:23;99074.59;;;15.98;39.72
68988;BME280;56038;46.080;11.116;2023-03-13T15:06:25;99046.69;;;15.95;39.95
68988;BME280;56038;46.080;11.116;2023-03-13T15:11:30;99051.84;;;15.97;40.26
68988;BME280;56038;46.080;11.116;2023-03-13T15:16:33;99036.97;;;15.83;40.63
68988;BME280;56038;46.080;11.116;2023-03-13T15:21:35;99036.06;;;15.43;40.85
68988;BME280;56038;46.080;11.116;2023-03-13T15:26:39;99029.94;;;14.88;42.33
68988;BME280;56038;46.080;11.116;2023-03-13T15:31:40;99026.28;;;14.77;42.78
68988;BME280;56038;46.080;11.116;2023-03-13T15:36:42;99018.63;;;14.59;43.78
68988;BME280;56038;46.080;11.116;2023-03-13T15:41:45;99023.31;;;14.40;43.52
68988;BME280;56038;46.080;11.116;2023-03-13T15:46:47;99011.09;;;14.25;44.53
68988;BME280;56038;46.080;11.116;2023-03-13T15:51:49;99011.38;;;14.20;44.49
68988;BME280;56038;46.080;11.116;2023-03-13T15:56:52;99005.63;;;14.14;45.19
68988;BME280;56038;46.080;11.116;2023-03-13T16:01:54;98992.16;;;14.05;45.96
68988;BME280;56038;46.080;11.116;2023-03-13T16:06:56;99007.28;;;13.86;46.76
68988;BME280;56038;46.080;11.116;2023-03-13T16:11:59;99005.13;;;13.78;46.66
68988;BME280;56038;46.080;11.116;2023-03-13T16:17:01;99001.09;;;13.73;46.82
68988;BME280;56038;46.080;11.116;2023-03-13T16:22:03;98999.94;;;13.63;47.88
68988;BME280;56038;46.080;11.116;2023-03-13T16:27:11;98986.50;;;13.53;48.08
68988;BME280;56038;46.080;11.116;2023-03-13T16:32:15;98983.56;;;13.43;48.21
68988;BME280;56038;46.080;11.116;2023-03-13T16:37:19;98994.78;;;13.31;48.63
68988;BME280;56038;46.080;11.116;2023-03-13T16:42:22;98990.03;;;13.22;48.59
68988;BME280;56038;46.080;11.116;2023-03-13T16:47:27;98988.84;;;13.12;49.44
68988;BME280;56038;46.080;11.116;2023-03-13T16:52:30;98988.34;;;13.05;49.82
68988;BME280;56038;46.080;11.116;2023-03-13T16:57:33;98975.59;;;12.99;49.93
68988;BME280;56038;46.080;11.116;2023-03-13T17:02:35;98971.50;;;12.94;49.42
68988;BME280;56038;46.080;11.116;2023-03-13T17:07:37;98973.81;;;12.84;50.28
68988;BME280;56038;46.080;11.116;2023-03-13T17:12:40;98965.59;;;12.74;50.39
68988;BME280;56038;46.080;11.116;2023-03-13T17:17:43;98956.31;;;12.69;50.36
68988;BME280;56038;46.080;11.116;2023-03-13T17:22:51;98959.13;;;12.66;50.65
68988;BME280;56038;46.080;11.116;2023-03-13T17:27:54;98972.44;;;12.61;50.85
68988;BME280;56038;46.080;11.116;2023-03-13T17:32:56;98976.25;;;12.55;51.24
68988;BME280;56038;46.080;11.116;2023-03-13T17:37:59;98958.19;;;12.51;50.83
68988;BME280;56038;46.080;11.116;2023-03-13T17:43:02;98950.41;;;12.49;51.08
68988;BME280;56038;46.080;11.116;2023-03-13T17:48:07;98948.84;;;12.45;51.10
68988;BME280;56038;46.080;11.116;2023-03-13T17:53:10;98944.72;;;12.41;51.80
68988;BME280;56038;46.080;11.116;2023-03-13T17:58:13;98957.75;;;12.43;51.12
68988;BME280;56038;46.080;11.116;2023-03-13T18:03:16;98951.47;;;12.45;51.04
68988;BME280;56038;46.080;11.116;2023-03-13T18:08:17;98961.19;;;12.43;51.32
68988;BME280;56038;46.080;11.116;2023-03-13T18:13:21;98952.28;;;12.47;50.83
68988;BME280;56038;46.080;11.116;2023-03-13T18:18:23;98950.81;;;12.42;50.96
68988;BME280;56038;46.080;11.116;2023-03-13T18:23:24;98954.34;;;12.41;50.96
68988;BME280;56038;46.080;11.116;2023-03-13T18:28:28;98951.66;;;12.42;50.99
68988;BME280;56038;46.080;11.116;2023-03-13T18:33:29;98955.19;;;12.41;51.95
68988;BME280;56038;46.080;11.116;2023-03-13T18:38:31;98944.72;;;12.41;52.10
68988;BME280;56038;46.080;11.116;2023-03-13T18:43:34;98946.25;;;12.45;51.09
68988;BME280;56038;46.080;11.116;2023-03-13T18:48:36;98934.06;;;12.44;51.24
68988;BME280;56038;46.080;11.116;2023-03-13T18:53:38;98939.94;;;12.49;51.17
68988;BME280;56038;46.080;11.116;2023-03-13T18:58:41;98927.59;;;12.51;51.06
68988;BME280;56038;46.080;11.116;2023-03-13T19:03:43;98926.47;;;12.55;50.85
68988;BME280;56038;46.080;11.116;2023-03-13T19:08:46;98911.59;;;12.56;50.75
68988;BME280;56038;46.080;11.116;2023-03-13T19:13:50;98898.25;;;12.60;50.75
68988;BME280;56038;46.080;11.116;2023-03-13T19:18:51;98894.88;;;12.58;50.77
68988;BME280;56038;46.080;11.116;2023-03-13T19:23:53;98893.53;;;12.51;50.88
68988;BME280;56038;46.080;11.116;2023-03-13T19:28:57;98884.00;;;12.50;51.17
68988;BME280;56038;46.080;11.116;2023-03-13T19:33:59;98878.97;;;12.62;50.73
68988;BME280;56038;46.080;11.116;2023-03-13T19:39:01;98874.50;;;12.64;50.79
68988;BME280;56038;46.080;11.116;2023-03-13T19:44:04;98885.00;;;12.64;50.73
68988;BME280;56038;46.080;11.116;2023-03-13T19:49:09;98880.84;;;12.59;51.31
68988;BME280;56038;46.080;11.116;2023-03-13T19:54:11;98882.53;;;12.60;50.85
68988;BME280;56038;46.080;11.116;2023-03-13T19:59:16;98879.16;;;12.58;50.99
68988;BME280;56038;46.080;11.116;2023-03-13T20:04:18;98883.81;;;12.53;51.05
68988;BME280;56038;46.080;11.116;2023-03-13T20:09:20;98880.16;;;12.56;50.88
68988;BME280;56038;46.080;11.116;2023-03-13T20:14:24;98876.03;;;12.68;50.97
68988;BME280;56038;46.080;11.116;2023-03-13T20:19:26;98860.41;;;12.50;51.71
68988;BME280;56038;46.080;11.116;2023-03-13T20:24:29;98851.38;;;12.40;51.54
68988;BME280;56038;46.080;11.116;2023-03-13T20:29:35;98836.59;;;12.39;51.53
68988;BME280;56038;46.080;11.116;2023-03-13T20:34:36;98824.69;;;12.34;51.57
68988;BME280;56038;46.080;11.116;2023-03-13T20:39:38;98804.06;;;12.27;51.87
68988;BME280;56038;46.080;11.116;2023-03-13T20:44:42;98810.50;;;12.22;52.31
68988;BME280;56038;46.080;11.116;2023-03-13T20:49:45;98810.84;;;12.16;52.18
68988;BME280;56038;46.080;11.116;2023-03-13T20:54:46;98804.91;;;12.12;52.32
68988;BME280;56038;46.080;11.116;2023-03-13T20:59:49;98819.03;;;12.10;52.38
68988;BME280;56038;46.080;11.116;2023-03-13T21:04:51;98804.16;;;12.10;52.54
68988;BME280;56038;46.080;11.116;2023-03-13T21:09:53;98819.38;;;12.04;52.57
68988;BME280;56038;46.080;11.116;2023-03-13T21:14:56;98829.00;;;12.03;52.75
68988;BME280;56038;46.080;11.116;2023-03-13T21:19:58;98820.13;;;12.06;52.40
68988;BME280;56038;46.080;11.116;2023-03-13T21:25:00;98827.63;;;12.12;52.30
68988;BME280;56038;46.080;11.116;2023-03-13T21:30:06;98812.53;;;12.17;52.15
68988;BME280;56038;46.080;11.116;2023-03-13T21:35:10;98799.53;;;12.15;52.35
68988;BME280;56038;46.080;11.116;2023-03-13T21:40:12;98806.69;;;12.12;52.36
68988;BME280;56038;46.080;11.116;2023-03-13T21:45:15;98801.22;;;12.16;51.99
68988;BME280;56038;46.080;11.116;2023-03-13T21:50:17;98787.78;;;12.22;51.95
68988;BME280;56038;46.080;11.116;2023-03-13T21:55:19;98785.91;;;12.24;52.08
68988;BME280;56038;46.080;11.116;2023-03-13T22:00:22;98778.91;;;12.25;52.33
68988;BME280;56038;46.080;11.116;2023-03-13T22:05:27;98776.09;;;12.28;52.27
68988;BME280;56038;46.080;11.116;2023-03-13T22:10:30;98763.69;;;12.32;52.19
68988;BME280;56038;46.080;11.116;2023-03-13T22:15:33;98772.03;;;12.38;51.81
68988;BME280;56038;46.080;11.116;2023-03-13T22:20:36;98752.84;;;12.38;51.82
68988;BME280;56038;46.080;11.116;2023-03-13T22:25:38;98747.72;;;12.36;52.20
68988;BME280;56038;46.080;11.116;2023-03-13T22:30:42;98743.41;;;12.35;52.23
68988;BME280;56038;46.080;11.116;2023-03-13T22:35:48;98739.50;;;12.42;52.33
68988;BME280;56038;46.080;11.116;2023-03-13T22:40:56;98718.91;;;12.36;53.10
68988;BME280;56038;46.080;11.116;2023-03-13T22:46:00;98710.38;;;12.33;52.65
68988;BME280;56038;46.080;11.116;2023-03-13T22:51:07;98708.94;;;12.27;52.88
68988;BME280;56038;46.080;11.116;2023-03-13T22:56:10;98709.88;;;12.26;53.13
68988;BME280;56038;46.080;11.116;2023-03-13T23:01:15;98697.56;;;12.12;54.17
68988;BME280;56038;46.080;11.116;2023-03-13T23:06:20;98691.84;;;12.06;54.44
68988;BME280;56038;46.080;11.116;2023-03-13T23:11:22;98671.84;;;12.05;54.38
68988;BME280;56038;46.080;11.116;2023-03-13T23:16:25;98679.72;;;12.05;54.48
68988;BME280;56038;46.080;11.116;2023-03-13T23:21:27;98669.41;;;12.02;54.71
68988;BME280;56038;46.080;11.116;2023-03-13T23:26:28;98656.75;;;11.94;56.84
68988;BME280;56038;46.080;11.116;2023-03-13T23:31:32;98644.69;;;11.76;58.28
68988;BME280;56038;46.080;11.116;2023-03-13T23:36:34;98625.88;;;11.69;58.11
68988;BME280;56038;46.080;11.116;2023-03-13T23:41:36;98609.84;;;11.59;61.20
68988;BME280;56038;46.080;11.116;2023-03-13T23:46:39;98609.69;;;11.47;60.06
68988;BME280;56038;46.080;11.116;2023-03-13T23:51:40;98602.97;;;11.43;60.95
68988;BME280;56038;46.080;11.116;2023-03-13T23:56:42;98585.00;;;11.21;62.50
